Time;durP1;ratioP1;P1;durP2;ratioP2;P2;SDS_P1;SDS_P2;PMS_P1;PMS_P2;Temp;Humidity;BMP_temperature;BMP_pressure;BME280_temperature;BME280_humidity;BME280_pressure;Samples;Min_cycle;Max_cycle;Signal;HPM_P1;HPM_P2
2019/08/10 00:00:08;;;;;;;2.10;1.88;;;;;;;23.45;58.67;100043.67;;;;-51
2019/08/10 00:03:08;;;;;;;2.65;1.90;;;;;;;23.44;58.68;100045.33;;;;-51
2019/08/10 00:06:07;;;;;;;2.10;1.89;;;;;;;23.43;58.69;100053.49;;;;-51
2019/08/10 00:09:07;;;;;;;2.13;1.93;;;;;;;23.43;58.67;100052.98;;;;-51
2019/08/10 00:12:07;;;;;;;3.00;2.00;;;;;;;23.44;58.69;100055.78;;;;-51
2019/08/10 00:15:07;;;;;;;2.39;1.79;;;;;;;23.43;58.68;100034.78;;;;-51
2019/08/10 00:18:07;;;;;;;2.13;1.91;;;;;;;23.42;58.65;100042.85;;;;-51
2019/08/10 00:21:07;;;;;;;2.41;1.83;;;;;;;23.42;58.66;100034.77;;;;-50
2019/08/10 00:24:07;;;;;;;2.03;1.83;;;;;;;23.42;58.66;100033.92;;;;-51
2019/08/10 00:27:07;;;;;;;2.27;2.00;;;;;;;23.43;58.67;100050.53;;;;-51
2019/08/10 00:30:07;;;;;;;2.45;1.92;;;;;;;23.42;58.67;100058.44;;;;-51
2019/08/10 00:33:07;;;;;;;2.27;1.91;;;;;;;23.42;58.69;100051.52;;;;-51
2019/08/10 00:36:07;;;;;;;2.88;1.98;;;;;;;23.41;58.66;100055.55;;;;-51
2019/08/10 00:39:07;;;;;;;1.97;1.79;;;;;;;23.42;58.69;100056.92;;;;-51
2019/08/10 00:42:07;;;;;;;2.06;1.86;;;;;;;23.41;58.66;100048.73;;;;-51
2019/08/10 00:45:07;;;;;;;2.07;1.85;;;;;;;23.41;58.64;100053.45;;;;-50
2019/08/10 00:48:40;;;;;;;2.97;1.93;;;;;;;23.41;58.68;100061.37;;;;-51
2019/08/10 00:51:07;;;;;;;2.02;1.75;;;;;;;23.41;58.68;100059.25;;;;-51
2019/08/10 00:54:07;;;;;;;2.04;1.84;;;;;;;23.41;58.65;100056.39;;;;-51
2019/08/10 00:57:07;;;;;;;1.99;1.79;;;;;;;23.40;58.65;100062.30;;;;-51
2019/08/10 01:00:07;;;;;;;1.91;1.74;;;;;;;23.41;58.65;100062.80;;;;-51
2019/08/10 01:03:07;;;;;;;2.01;1.78;;;;;;;23.40;58.64;100067.35;;;;-51
2019/08/10 01:06:07;;;;;;;2.05;1.83;;;;;;;23.40;58.65;100063.11;;;;-51
2019/08/10 01:09:07;;;;;;;2.53;1.90;;;;;;;23.40;58.66;100068.09;;;;-51
2019/08/10 01:12:07;;;;;;;1.99;1.80;;;;;;;23.39;58.64;100071.10;;;;-51
2019/08/10 01:15:07;;;;;;;2.11;1.91;;;;;;;23.39;58.66;100081.65;;;;-51
2019/08/10 01:18:07;;;;;;;1.76;1.65;;;;;;;23.39;58.66;100076.73;;;;-51
2019/08/10 01:21:07;;;;;;;2.17;1.89;;;;;;;23.39;58.67;100085.09;;;;-52
2019/08/10 01:24:07;;;;;;;2.69;1.99;;;;;;;23.38;58.63;100096.29;;;;-51
2019/08/10 01:27:07;;;;;;;1.85;1.71;;;;;;;23.38;58.66;100104.95;;;;-51
2019/08/10 01:30:07;;;;;;;2.11;1.80;;;;;;;23.38;58.66;100103.27;;;;-51
2019/08/10 01:33:07;;;;;;;1.88;1.77;;;;;;;23.38;58.66;100107.98;;;;-51
2019/08/10 01:36:07;;;;;;;2.01;1.81;;;;;;;23.38;58.61;100112.88;;;;-51
2019/08/10 01:39:07;;;;;;;2.57;1.85;;;;;;;23.38;58.60;100118.44;;;;-51
2019/08/10 01:42:07;;;;;;;1.87;1.70;;;;;;;23.38;58.62;100134.71;;;;-51
2019/08/10 01:45:07;;;;;;;1.83;1.68;;;;;;;23.38;58.63;100138.16;;;;-51
2019/08/10 01:48:07;;;;;;;1.96;1.68;;;;;;;23.37;58.62;100144.47;;;;-52
2019/08/10 01:51:07;;;;;;;2.67;1.77;;;;;;;23.38;58.62;100154.23;;;;-51
2019/08/10 01:54:07;;;;;;;2.11;1.83;;;;;;;23.38;58.63;100164.69;;;;-51
2019/08/10 01:57:07;;;;;;;1.79;1.69;;;;;;;23.37;58.62;100163.64;;;;-51
2019/08/10 02:00:07;;;;;;;1.79;1.69;;;;;;;23.37;58.62;100161.99;;;;-51
2019/08/10 02:03:07;;;;;;;2.25;1.76;;;;;;;23.37;58.64;100159.53;;;;-51
2019/08/10 02:06:07;;;;;;;2.07;1.87;;;;;;;23.37;58.62;100160.38;;;;-53
2019/08/10 02:09:07;;;;;;;2.07;1.81;;;;;;;23.36;58.59;100149.05;;;;-53
2019/08/10 02:12:07;;;;;;;2.15;1.76;;;;;;;23.37;58.57;100139.88;;;;-53
2019/08/10 02:15:07;;;;;;;2.27;1.83;;;;;;;23.35;58.59;100125.95;;;;-52
2019/08/10 02:18:07;;;;;;;2.00;1.78;;;;;;;23.36;58.59;100124.86;;;;-52
2019/08/10 02:21:07;;;;;;;2.03;1.80;;;;;;;23.35;58.58;100122.74;;;;-53
2019/08/10 02:24:07;;;;;;;1.81;1.69;;;;;;;23.36;58.62;100118.66;;;;-51
2019/08/10 02:27:07;;;;;;;2.03;1.85;;;;;;;23.35;58.58;100111.73;;;;-51
2019/08/10 02:30:07;;;;;;;2.14;1.79;;;;;;;23.35;58.59;100117.53;;;;-51
2019/08/10 02:33:07;;;;;;;1.83;1.69;;;;;;;23.35;58.61;100117.86;;;;-51
2019/08/10 02:36:07;;;;;;;1.78;1.67;;;;;;;23.35;58.59;100119.11;;;;-51
2019/08/10 02:39:07;;;;;;;2.22;1.67;;;;;;;23.35;58.61;100121.91;;;;-51
2019/08/10 02:42:07;;;;;;;1.70;1.60;;;;;;;23.35;58.60;100118.09;;;;-51
2019/08/10 02:45:07;;;;;;;1.99;1.80;;;;;;;23.35;58.60;100122.98;;;;-51
2019/08/10 02:48:07;;;;;;;1.99;1.81;;;;;;;23.34;58.58;100121.88;;;;-51
2019/08/10 02:51:07;;;;;;;1.81;1.69;;;;;;;23.33;58.60;100127.95;;;;-51
2019/08/10 02:54:07;;;;;;;1.80;1.70;;;;;;;23.34;58.58;100117.16;;;;-51
2019/08/10 02:57:07;;;;;;;1.90;1.60;;;;;;;23.33;58.56;100117.67;;;;-51
2019/08/10 03:00:07;;;;;;;1.80;1.69;;;;;;;23.34;58.59;100129.30;;;;-51
2019/08/10 03:03:07;;;;;;;1.77;1.67;;;;;;;23.34;58.60;100145.72;;;;-51
2019/08/10 03:06:07;;;;;;;1.89;1.62;;;;;;;23.33;58.65;100144.03;;;;-51
2019/08/10 03:09:07;;;;;;;1.78;1.68;;;;;;;23.33;58.60;100138.78;;;;-51
2019/08/10 03:12:07;;;;;;;1.69;1.59;;;;;;;23.33;58.62;100133.72;;;;-51
2019/08/10 03:15:07;;;;;;;2.15;1.61;;;;;;;23.33;58.62;100141.98;;;;-52
2019/08/10 03:18:07;;;;;;;1.89;1.71;;;;;;;23.33;58.61;100146.06;;;;-51
2019/08/10 03:21:07;;;;;;;1.75;1.65;;;;;;;23.33;58.63;100133.55;;;;-51
2019/08/10 03:24:07;;;;;;;2.01;1.60;;;;;;;23.33;58.62;100140.12;;;;-51
2019/08/10 03:27:07;;;;;;;2.93;1.79;;;;;;;23.32;58.61;100150.68;;;;-51
2019/08/10 03:30:07;;;;;;;1.79;1.69;;;;;;;23.32;58.61;100154.72;;;;-51
2019/08/10 03:33:07;;;;;;;1.69;1.59;;;;;;;23.32;58.59;100156.48;;;;-51
2019/08/10 03:36:07;;;;;;;1.83;1.65;;;;;;;23.32;58.57;100156.41;;;;-51
2019/08/10 03:39:07;;;;;;;1.73;1.63;;;;;;;23.32;58.61;100159.66;;;;-51
2019/08/10 03:42:07;;;;;;;1.69;1.55;;;;;;;23.32;58.58;100185.90;;;;-51
2019/08/10 03:45:07;;;;;;;1.81;1.67;;;;;;;23.32;58.61;100193.79;;;;-52
2019/08/10 03:48:07;;;;;;;1.95;1.70;;;;;;;23.32;58.62;100204.74;;;;-51
2019/08/10 03:51:07;;;;;;;2.23;1.75;;;;;;;23.32;58.62;100212.91;;;;-51
2019/08/10 03:54:07;;;;;;;1.73;1.63;;;;;;;23.31;58.58;100210.31;;;;-59
2019/08/10 03:57:07;;;;;;;1.82;1.71;;;;;;;23.32;58.61;100197.83;;;;-59
2019/08/10 04:00:07;;;;;;;1.70;1.60;;;;;;;23.31;58.61;100212.40;;;;-59
2019/08/10 04:03:07;;;;;;;1.80;1.67;;;;;;;23.32;58.61;100216.97;;;;-59
2019/08/10 04:06:08;;;;;;;1.96;1.60;;;;;;;23.31;58.58;100207.95;;;;-59
2019/08/10 04:09:07;;;;;;;1.70;1.60;;;;;;;23.31;58.62;100225.88;;;;-59
2019/08/10 04:12:07;;;;;;;1.85;1.62;;;;;;;23.31;58.61;100215.57;;;;-59
2019/08/10 04:15:07;;;;;;;1.63;1.53;;;;;;;23.30;58.56;100205.27;;;;-58
2019/08/10 04:18:07;;;;;;;1.70;1.60;;;;;;;23.31;58.58;100239.84;;;;-59
2019/08/10 04:21:07;;;;;;;1.71;1.61;;;;;;;23.30;58.60;100250.97;;;;-58
2019/08/10 04:24:07;;;;;;;1.65;1.55;;;;;;;23.30;58.59;100232.86;;;;-57
2019/08/10 04:27:07;;;;;;;1.74;1.64;;;;;;;23.30;58.60;100236.44;;;;-59
2019/08/10 04:30:07;;;;;;;1.58;1.48;;;;;;;23.30;58.54;100207.29;;;;-59
2019/08/10 04:33:07;;;;;;;1.69;1.56;;;;;;;23.29;58.56;100193.58;;;;-59
2019/08/10 04:36:07;;;;;;;1.87;1.76;;;;;;;23.29;58.58;100204.09;;;;-59
2019/08/10 04:39:07;;;;;;;1.78;1.68;;;;;;;23.30;58.52;100235.56;;;;-59
2019/08/10 04:42:07;;;;;;;1.69;1.59;;;;;;;23.30;58.59;100220.70;;;;-59
2019/08/10 04:45:07;;;;;;;1.75;1.65;;;;;;;23.29;58.55;100206.63;;;;-58
2019/08/10 04:48:07;;;;;;;1.60;1.50;;;;;;;23.29;58.57;100172.31;;;;-59
2019/08/10 04:51:07;;;;;;;1.64;1.54;;;;;;;23.29;58.58;100176.45;;;;-59
2019/08/10 04:54:07;;;;;;;1.65;1.55;;;;;;;23.29;58.55;100223.91;;;;-59
2019/08/10 04:57:07;;;;;;;1.75;1.63;;;;;;;23.28;58.53;100225.38;;;;-59
2019/08/10 05:00:07;;;;;;;1.89;1.67;;;;;;;23.28;58.55;100182.94;;;;-59
2019/08/10 05:03:07;;;;;;;1.79;1.69;;;;;;;23.29;58.57;100212.49;;;;-58
2019/08/10 05:06:07;;;;;;;1.68;1.58;;;;;;;23.28;58.57;100226.14;;;;-50
2019/08/10 05:09:07;;;;;;;1.75;1.63;;;;;;;23.28;58.56;100244.44;;;;-51
2019/08/10 05:12:07;;;;;;;1.72;1.62;;;;;;;23.28;58.57;100249.50;;;;-51
2019/08/10 05:15:07;;;;;;;1.50;1.40;;;;;;;23.29;58.57;100254.72;;;;-50
2019/08/10 05:18:07;;;;;;;1.76;1.50;;;;;;;23.28;58.56;100265.41;;;;-59
2019/08/10 05:21:07;;;;;;;1.60;1.50;;;;;;;23.28;58.57;100271.88;;;;-60
2019/08/10 05:24:07;;;;;;;1.72;1.62;;;;;;;23.28;58.55;100278.98;;;;-59
2019/08/10 05:27:07;;;;;;;1.77;1.64;;;;;;;23.28;58.56;100281.84;;;;-59
2019/08/10 05:30:07;;;;;;;1.60;1.50;;;;;;;23.28;58.57;100286.47;;;;-58
2019/08/10 05:33:07;;;;;;;1.51;1.41;;;;;;;23.28;58.57;100297.02;;;;-59
2019/08/10 05:36:07;;;;;;;1.57;1.47;;;;;;;23.28;58.55;100300.80;;;;-59
2019/08/10 05:39:07;;;;;;;1.69;1.59;;;;;;;23.28;58.55;100308.88;;;;-59
2019/08/10 05:42:07;;;;;;;1.65;1.55;;;;;;;23.28;58.54;100302.88;;;;-58
2019/08/10 05:45:07;;;;;;;1.70;1.60;;;;;;;23.28;58.55;100308.44;;;;-58
2019/08/10 05:48:07;;;;;;;1.70;1.60;;;;;;;23.27;58.55;100309.02;;;;-59
2019/08/10 05:51:07;;;;;;;1.57;1.47;;;;;;;23.28;58.53;100311.81;;;;-59
2019/08/10 05:54:07;;;;;;;1.66;1.51;;;;;;;23.28;58.55;100331.19;;;;-59
2019/08/10 05:57:07;;;;;;;1.57;1.47;;;;;;;23.28;58.54;100334.46;;;;-59
2019/08/10 06:00:07;;;;;;;1.67;1.57;;;;;;;23.27;58.55;100340.03;;;;-60
2019/08/10 06:03:07;;;;;;;1.67;1.57;;;;;;;23.28;58.51;100346.19;;;;-62
2019/08/10 06:06:07;;;;;;;1.70;1.60;;;;;;;23.28;58.54;100341.03;;;;-60
2019/08/10 06:09:07;;;;;;;1.56;1.46;;;;;;;23.28;58.52;100341.98;;;;-58
2019/08/10 06:12:07;;;;;;;1.73;1.62;;;;;;;23.27;58.52;100351.55;;;;-58
2019/08/10 06:15:07;;;;;;;1.61;1.51;;;;;;;23.28;58.51;100352.77;;;;-59
2019/08/10 06:18:07;;;;;;;1.62;1.52;;;;;;;23.27;58.52;100360.66;;;;-59
2019/08/10 06:21:07;;;;;;;1.53;1.43;;;;;;;23.27;58.53;100366.82;;;;-58
2019/08/10 06:24:07;;;;;;;1.50;1.40;;;;;;;23.27;58.56;100370.50;;;;-59
2019/08/10 06:27:07;;;;;;;1.60;1.50;;;;;;;23.25;58.84;100383.11;;;;-58
2019/08/10 06:30:07;;;;;;;5.26;2.03;;;;;;;23.25;60.66;100383.34;;;;-55
2019/08/10 06:33:07;;;;;;;6.35;2.01;;;;;;;23.23;61.63;100387.27;;;;-51
2019/08/10 06:36:07;;;;;;;3.71;1.96;;;;;;;23.23;61.60;100390.13;;;;-50
2019/08/10 06:39:07;;;;;;;4.24;2.08;;;;;;;23.26;61.49;100397.87;;;;-51
2019/08/10 06:42:07;;;;;;;4.99;2.27;;;;;;;23.28;61.54;100408.40;;;;-51
2019/08/10 06:45:07;;;;;;;3.28;2.17;;;;;;;23.30;61.12;100411.86;;;;-51
2019/08/10 06:48:07;;;;;;;3.75;2.19;;;;;;;23.31;60.91;100424.39;;;;-52
2019/08/10 06:51:07;;;;;;;5.15;2.17;;;;;;;23.32;60.72;100428.47;;;;-50
2019/08/10 06:54:07;;;;;;;3.45;2.35;;;;;;;23.34;60.59;100430.52;;;;-51
2019/08/10 06:57:07;;;;;;;3.00;1.98;;;;;;;23.33;60.48;100430.78;;;;-51
2019/08/10 07:00:07;;;;;;;3.39;2.10;;;;;;;23.35;60.37;100438.97;;;;-57
2019/08/10 07:03:07;;;;;;;3.39;2.03;;;;;;;23.34;60.20;100448.24;;;;-57
2019/08/10 07:06:07;;;;;;;3.01;2.21;;;;;;;23.35;60.15;100450.53;;;;-57
2019/08/10 07:09:07;;;;;;;2.93;1.99;;;;;;;23.36;60.03;100448.63;;;;-58
2019/08/10 07:12:07;;;;;;;3.04;2.10;;;;;;;23.36;60.03;100465.72;;;;-59
2019/08/10 07:15:07;;;;;;;2.49;2.10;;;;;;;23.36;59.94;100455.44;;;;-59
2019/08/10 07:18:07;;;;;;;2.43;1.98;;;;;;;23.37;59.92;100464.50;;;;-59
2019/08/10 07:21:07;;;;;;;2.95;1.99;;;;;;;23.37;59.85;100454.30;;;;-59
2019/08/10 07:24:07;;;;;;;3.19;2.00;;;;;;;23.37;59.71;100449.81;;;;-59
2019/08/10 07:27:07;;;;;;;2.20;1.87;;;;;;;23.37;59.66;100463.05;;;;-58
2019/08/10 07:30:07;;;;;;;2.41;1.90;;;;;;;23.39;59.62;100464.02;;;;-59
2019/08/10 07:33:07;;;;;;;2.71;1.90;;;;;;;23.38;59.57;100446.06;;;;-58
2019/08/10 07:36:07;;;;;;;2.87;1.93;;;;;;;23.39;59.52;100457.95;;;;-59
2019/08/10 07:39:07;;;;;;;1.95;1.80;;;;;;;23.38;59.45;100467.30;;;;-59
2019/08/10 07:42:07;;;;;;;2.13;1.90;;;;;;;23.39;59.43;100471.88;;;;-58
2019/08/10 07:45:07;;;;;;;2.26;1.79;;;;;;;23.39;59.39;100469.25;;;;-59
2019/08/10 07:48:40;;;;;;;2.13;1.78;;;;;;;23.38;59.38;100465.45;;;;-59
2019/08/10 07:51:18;;;;;;;2.55;1.85;;;;;;;23.39;59.36;100471.98;;;;-59
2019/08/10 07:54:07;;;;;;;3.49;1.90;;;;;;;23.40;59.29;100481.08;;;;-59
2019/08/10 07:57:07;;;;;;;2.39;1.80;;;;;;;23.40;59.27;100486.64;;;;-59
2019/08/10 08:00:07;;;;;;;2.29;1.87;;;;;;;23.40;59.22;100488.16;;;;-59
2019/08/10 08:03:07;;;;;;;2.55;1.95;;;;;;;23.39;59.23;100493.05;;;;-59
2019/08/10 08:06:07;;;;;;;2.12;1.91;;;;;;;23.40;59.18;100490.55;;;;-59
2019/08/10 08:09:07;;;;;;;5.41;2.08;;;;;;;23.38;59.35;100496.19;;;;-58
2019/08/10 08:12:07;;;;;;;2.83;1.91;;;;;;;23.39;59.36;100495.23;;;;-57
2019/08/10 08:15:07;;;;;;;2.64;1.97;;;;;;;23.40;59.42;100514.48;;;;-58
2019/08/10 08:18:07;;;;;;;2.59;1.95;;;;;;;23.43;59.49;100523.41;;;;-58
2019/08/10 08:21:07;;;;;;;4.56;1.95;;;;;;;23.39;58.94;100529.02;;;;-59
2019/08/10 08:24:07;;;;;;;6.39;2.11;;;;;;;23.38;58.85;100527.13;;;;-56
2019/08/10 08:27:07;;;;;;;4.24;2.19;;;;;;;23.37;58.74;100530.06;;;;-58
2019/08/10 08:30:07;;;;;;;7.83;2.31;;;;;;;23.38;58.69;100533.88;;;;-56
2019/08/10 08:33:07;;;;;;;5.65;2.45;;;;;;;23.38;58.46;100528.89;;;;-57
2019/08/10 08:36:07;;;;;;;6.97;2.34;;;;;;;23.38;58.30;100533.60;;;;-59
2019/08/10 08:39:07;;;;;;;5.71;2.34;;;;;;;23.39;57.67;100537.61;;;;-57
2019/08/10 08:42:07;;;;;;;5.06;2.19;;;;;;;23.40;57.92;100542.80;;;;-58
2019/08/10 08:45:07;;;;;;;5.75;2.48;;;;;;;23.38;57.90;100544.05;;;;-55
2019/08/10 08:48:07;;;;;;;6.61;2.25;;;;;;;23.40;57.09;100548.53;;;;-57
2019/08/10 08:51:07;;;;;;;7.05;2.72;;;;;;;23.38;57.35;100544.77;;;;-58
2019/08/10 08:54:07;;;;;;;5.61;2.43;;;;;;;23.37;57.31;100542.61;;;;-57
2019/08/10 08:57:07;;;;;;;7.01;2.49;;;;;;;23.37;57.75;100548.34;;;;-57
2019/08/10 09:00:07;;;;;;;6.45;2.42;;;;;;;23.38;58.13;100551.23;;;;-53
2019/08/10 09:03:07;;;;;;;8.39;2.44;;;;;;;23.40;58.12;100559.89;;;;-58
2019/08/10 09:06:07;;;;;;;7.43;2.42;;;;;;;23.41;57.96;100560.52;;;;-56
2019/08/10 09:09:07;;;;;;;5.40;2.21;;;;;;;23.41;57.23;100555.20;;;;-51
2019/08/10 09:12:07;;;;;;;10.06;2.51;;;;;;;23.42;56.91;100566.36;;;;-49
2019/08/10 09:15:07;;;;;;;7.31;2.31;;;;;;;23.41;57.19;100554.09;;;;-51
2019/08/10 09:18:07;;;;;;;5.29;2.51;;;;;;;23.42;56.89;100556.41;;;;-51
2019/08/10 09:21:07;;;;;;;5.58;2.40;;;;;;;23.41;56.55;100555.80;;;;-51
2019/08/10 09:24:07;;;;;;;5.73;2.38;;;;;;;23.41;56.21;100550.41;;;;-51
2019/08/10 09:27:07;;;;;;;6.67;2.51;;;;;;;23.43;56.68;100549.59;;;;-51
2019/08/10 09:30:07;;;;;;;4.47;2.02;;;;;;;23.43;56.29;100544.03;;;;-51
2019/08/10 09:33:07;;;;;;;7.50;2.45;;;;;;;23.42;56.23;100543.42;;;;-48
2019/08/10 09:36:07;;;;;;;6.38;2.34;;;;;;;23.45;55.81;100540.15;;;;-49
2019/08/10 09:39:07;;;;;;;5.43;2.45;;;;;;;23.45;55.81;100531.79;;;;-51
2019/08/10 09:42:07;;;;;;;8.53;2.69;;;;;;;23.44;56.16;100532.03;;;;-51
2019/08/10 09:45:07;;;;;;;10.84;2.42;;;;;;;23.44;55.93;100536.65;;;;-53
2019/08/10 09:48:07;;;;;;;8.11;2.67;;;;;;;23.44;55.90;100535.06;;;;-51
2019/08/10 09:51:07;;;;;;;6.43;2.55;;;;;;;23.44;56.25;100533.61;;;;-52
2019/08/10 09:54:07;;;;;;;8.05;2.63;;;;;;;23.45;56.45;100528.08;;;;-51
2019/08/10 09:57:07;;;;;;;10.29;2.62;;;;;;;23.47;56.46;100535.66;;;;-57
2019/08/10 10:00:07;;;;;;;6.27;2.43;;;;;;;23.48;56.60;100530.30;;;;-51
2019/08/10 10:03:07;;;;;;;9.40;2.51;;;;;;;23.49;56.73;100531.84;;;;-50
2019/08/10 10:06:07;;;;;;;8.27;2.45;;;;;;;23.51;56.85;100534.66;;;;-51
2019/08/10 10:09:07;;;;;;;11.33;2.50;;;;;;;23.51;56.97;100539.65;;;;-51
2019/08/10 10:12:07;;;;;;;4.59;2.09;;;;;;;23.52;57.00;100543.86;;;;-50
2019/08/10 10:15:07;;;;;;;6.08;2.46;;;;;;;23.53;57.08;100539.11;;;;-50
2019/08/10 10:18:07;;;;;;;4.61;2.25;;;;;;;23.52;57.13;100536.47;;;;-50
2019/08/10 10:21:07;;;;;;;6.72;2.64;;;;;;;23.54;57.19;100545.44;;;;-50
2019/08/10 10:24:07;;;;;;;5.22;2.01;;;;;;;23.55;57.22;100523.83;;;;-51
2019/08/10 10:27:07;;;;;;;7.61;2.49;;;;;;;23.54;57.27;100524.30;;;;-59
2019/08/10 10:30:07;;;;;;;4.81;2.35;;;;;;;23.54;57.38;100523.19;;;;-59
2019/08/10 10:33:07;;;;;;;4.95;2.00;;;;;;;23.54;57.36;100520.15;;;;-58
2019/08/10 10:36:07;;;;;;;4.51;2.07;;;;;;;23.54;57.37;100520.25;;;;-59
2019/08/10 10:39:07;;;;;;;5.47;2.46;;;;;;;23.54;57.37;100516.78;;;;-60
2019/08/10 10:42:07;;;;;;;6.01;2.40;;;;;;;23.53;57.39;100510.38;;;;-58
2019/08/10 10:45:07;;;;;;;5.67;2.21;;;;;;;23.54;57.40;100511.89;;;;-59
2019/08/10 10:48:07;;;;;;;4.93;2.39;;;;;;;23.53;57.41;100517.59;;;;-60
2019/08/10 10:51:07;;;;;;;6.77;2.19;;;;;;;23.52;57.59;100516.05;;;;-51
2019/08/10 10:54:07;;;;;;;3.45;2.06;;;;;;;23.53;57.52;100538.67;;;;-52
2019/08/10 10:57:07;;;;;;;5.09;2.17;;;;;;;23.54;57.57;100519.14;;;;-52
2019/08/10 11:00:07;;;;;;;5.85;2.39;;;;;;;23.55;57.61;100534.70;;;;-52
2019/08/10 11:03:07;;;;;;;5.79;2.13;;;;;;;23.57;57.66;100516.36;;;;-50
2019/08/10 11:06:07;;;;;;;5.85;2.11;;;;;;;23.55;57.70;100514.45;;;;-52
2019/08/10 11:09:07;;;;;;;5.44;2.58;;;;;;;23.55;57.73;100516.73;;;;-52
2019/08/10 11:12:07;;;;;;;4.14;2.09;;;;;;;23.56;57.75;100518.28;;;;-51
2019/08/10 11:15:07;;;;;;;8.43;2.15;;;;;;;23.56;57.75;100532.78;;;;-51
2019/08/10 11:18:07;;;;;;;3.47;2.10;;;;;;;23.55;57.75;100533.53;;;;-51
2019/08/10 11:21:07;;;;;;;4.27;2.05;;;;;;;23.55;57.76;100531.67;;;;-50
2019/08/10 11:24:07;;;;;;;5.03;2.11;;;;;;;23.55;57.70;100510.00;;;;-51
2019/08/10 11:27:07;;;;;;;4.51;1.99;;;;;;;23.55;57.69;100509.16;;;;-51
2019/08/10 11:30:07;;;;;;;3.92;2.07;;;;;;;23.55;57.70;100515.73;;;;-51
2019/08/10 11:33:07;;;;;;;5.22;2.02;;;;;;;23.56;57.69;100513.23;;;;-52
2019/08/10 11:36:07;;;;;;;4.60;1.92;;;;;;;23.55;57.70;100503.25;;;;-52
2019/08/10 11:39:07;;;;;;;3.82;2.11;;;;;;;23.56;57.64;100501.49;;;;-51
2019/08/10 11:42:07;;;;;;;4.19;2.05;;;;;;;23.55;57.66;100503.86;;;;-51
2019/08/10 11:45:07;;;;;;;3.48;1.97;;;;;;;23.55;57.65;100505.20;;;;-52
2019/08/10 11:48:07;;;;;;;3.09;1.94;;;;;;;23.56;57.66;100498.45;;;;-51
2019/08/10 11:51:07;;;;;;;3.19;1.96;;;;;;;23.54;57.65;100504.50;;;;-51
2019/08/10 11:54:07;;;;;;;4.35;1.90;;;;;;;23.54;57.64;100499.17;;;;-51
2019/08/10 11:57:07;;;;;;;3.06;1.84;;;;;;;23.55;57.65;100502.64;;;;-51
2019/08/10 12:00:07;;;;;;;3.97;1.95;;;;;;;23.54;57.77;100506.42;;;;-50
2019/08/10 12:03:07;;;;;;;4.31;1.92;;;;;;;23.57;57.76;100503.81;;;;-48
2019/08/10 12:06:07;;;;;;;3.29;2.09;;;;;;;23.58;57.83;100500.64;;;;-47
2019/08/10 12:09:07;;;;;;;4.51;1.95;;;;;;;23.59;57.82;100493.08;;;;-51
2019/08/10 12:12:07;;;;;;;4.00;1.86;;;;;;;23.61;57.94;100500.70;;;;-50
2019/08/10 12:15:07;;;;;;;3.49;1.89;;;;;;;23.62;57.96;100499.57;;;;-49
2019/08/10 12:18:07;;;;;;;3.70;1.91;;;;;;;23.64;58.08;100507.86;;;;-51
2019/08/10 12:21:07;;;;;;;3.28;1.99;;;;;;;23.64;58.13;100497.41;;;;-48
2019/08/10 12:24:07;;;;;;;9.88;2.15;;;;;;;23.65;58.20;100505.05;;;;-50
2019/08/10 12:27:07;;;;;;;3.25;2.01;;;;;;;23.66;58.26;100503.87;;;;-55
2019/08/10 12:30:07;;;;;;;3.87;2.00;;;;;;;23.66;58.30;100505.25;;;;-59
2019/08/10 12:33:07;;;;;;;4.16;1.93;;;;;;;23.66;58.32;100505.83;;;;-57
2019/08/10 12:36:07;;;;;;;3.63;1.80;;;;;;;23.66;58.24;100505.15;;;;-49
2019/08/10 12:39:07;;;;;;;6.57;2.09;;;;;;;23.65;58.29;100512.91;;;;-58
2019/08/10 12:42:07;;;;;;;3.31;1.81;;;;;;;23.66;58.32;100511.66;;;;-58
2019/08/10 12:45:07;;;;;;;2.78;1.89;;;;;;;23.68;58.35;100507.47;;;;-54
2019/08/10 12:48:07;;;;;;;6.69;1.91;;;;;;;23.68;58.44;100504.46;;;;-57
2019/08/10 12:51:07;;;;;;;4.90;1.90;;;;;;;23.69;58.39;100506.01;;;;-57
2019/08/10 12:54:07;;;;;;;3.89;2.00;;;;;;;23.70;58.40;100514.60;;;;-59
2019/08/10 12:57:07;;;;;;;3.82;1.91;;;;;;;23.70;58.42;100515.98;;;;-58
2019/08/10 13:00:07;;;;;;;3.07;1.67;;;;;;;23.71;58.38;100509.50;;;;-58
2019/08/10 13:03:07;;;;;;;4.33;1.80;;;;;;;23.72;58.32;100508.86;;;;-49
2019/08/10 13:06:07;;;;;;;2.73;1.93;;;;;;;23.72;58.40;100501.03;;;;-50
2019/08/10 13:09:07;;;;;;;3.09;1.94;;;;;;;23.73;58.34;100506.52;;;;-49
2019/08/10 13:12:07;;;;;;;2.87;1.81;;;;;;;23.72;58.34;100500.93;;;;-49
2019/08/10 13:15:07;;;;;;;5.33;1.79;;;;;;;23.73;58.45;100510.06;;;;-53
2019/08/10 13:18:07;;;;;;;3.45;1.88;;;;;;;23.74;58.38;100512.45;;;;-50
2019/08/10 13:21:07;;;;;;;9.25;2.18;;;;;;;23.74;58.23;100523.41;;;;-50
2019/08/10 13:24:07;;;;;;;5.01;1.88;;;;;;;23.73;58.23;100516.81;;;;-49
2019/08/10 13:27:07;;;;;;;7.08;2.01;;;;;;;23.73;58.29;100517.08;;;;-50
2019/08/10 13:30:07;;;;;;;3.36;1.86;;;;;;;23.72;58.30;100511.72;;;;-50
2019/08/10 13:33:07;;;;;;;4.44;1.88;;;;;;;23.71;58.29;100516.69;;;;-50
2019/08/10 13:36:07;;;;;;;11.67;2.12;;;;;;;23.70;58.29;100515.55;;;;-50
2019/08/10 13:39:07;;;;;;;4.37;1.88;;;;;;;23.70;58.31;100514.27;;;;-50
2019/08/10 13:42:07;;;;;;;4.52;1.87;;;;;;;23.69;58.29;100510.46;;;;-50
2019/08/10 13:45:07;;;;;;;4.46;1.81;;;;;;;23.68;58.29;100509.42;;;;-51
2019/08/10 13:48:07;;;;;;;3.51;1.85;;;;;;;23.67;58.28;100507.38;;;;-51
2019/08/10 13:51:07;;;;;;;4.97;1.87;;;;;;;23.66;58.26;100505.99;;;;-58
2019/08/10 13:54:07;;;;;;;4.49;1.75;;;;;;;23.66;58.29;100501.84;;;;-57
2019/08/10 13:57:07;;;;;;;6.14;1.70;;;;;;;23.64;58.25;100495.52;;;;-50
2019/08/10 14:00:07;;;;;;;3.51;1.73;;;;;;;23.64;58.25;100497.58;;;;-50
2019/08/10 14:03:07;;;;;;;3.97;2.05;;;;;;;23.63;58.24;100499.03;;;;-51
2019/08/10 14:06:07;;;;;;;3.59;1.67;;;;;;;23.62;58.23;100503.38;;;;-50
2019/08/10 14:09:07;;;;;;;2.81;1.74;;;;;;;23.62;58.21;100504.20;;;;-50
2019/08/10 14:12:07;;;;;;;2.85;1.87;;;;;;;23.62;58.19;100493.14;;;;-50
2019/08/10 14:15:07;;;;;;;3.34;1.81;;;;;;;23.61;58.17;100498.84;;;;-50
2019/08/10 14:18:07;;;;;;;3.47;1.81;;;;;;;23.61;58.14;100491.59;;;;-56
2019/08/10 14:21:07;;;;;;;4.36;1.70;;;;;;;23.59;58.17;100494.33;;;;-56
2019/08/10 14:24:07;;;;;;;2.27;1.63;;;;;;;23.60;58.15;100496.28;;;;-56
2019/08/10 14:27:11;;;;;;;3.68;1.71;;;;;;;23.58;58.13;100492.28;;;;-56
2019/08/10 14:30:07;;;;;;;2.44;1.62;;;;;;;23.58;58.12;100491.27;;;;-56
2019/08/10 14:33:07;;;;;;;3.88;1.68;;;;;;;23.55;58.25;100490.00;;;;-58
2019/08/10 14:36:07;;;;;;;4.23;1.90;;;;;;;23.58;58.27;100489.01;;;;-58
2019/08/10 14:39:07;;;;;;;4.21;1.79;;;;;;;23.59;58.27;100489.00;;;;-59
2019/08/10 14:42:07;;;;;;;1.97;1.54;;;;;;;23.60;58.34;100485.25;;;;-59
2019/08/10 14:45:07;;;;;;;4.57;1.63;;;;;;;23.62;58.33;100491.14;;;;-58
2019/08/10 14:48:07;;;;;;;5.35;1.68;;;;;;;23.64;58.38;100487.80;;;;-57
2019/08/10 14:51:07;;;;;;;2.88;1.71;;;;;;;23.65;58.39;100481.59;;;;-57
2019/08/10 14:54:07;;;;;;;4.21;1.83;;;;;;;23.66;58.38;100487.44;;;;-58
2019/08/10 14:57:07;;;;;;;3.75;1.74;;;;;;;23.67;58.46;100490.44;;;;-54
2019/08/10 15:00:07;;;;;;;2.03;1.57;;;;;;;23.69;58.41;100483.31;;;;-57
2019/08/10 15:03:07;;;;;;;2.45;1.53;;;;;;;23.70;58.39;100486.03;;;;-60
2019/08/10 15:06:07;;;;;;;2.83;1.53;;;;;;;23.70;58.44;100493.39;;;;-53
2019/08/10 15:09:07;;;;;;;4.79;1.57;;;;;;;23.71;58.41;100491.80;;;;-58
2019/08/10 15:12:07;;;;;;;4.03;1.72;;;;;;;23.71;58.46;100490.89;;;;-54
2019/08/10 15:15:07;;;;;;;5.18;1.66;;;;;;;23.71;58.41;100486.81;;;;-57
2019/08/10 15:18:07;;;;;;;3.18;1.62;;;;;;;23.72;58.41;100486.43;;;;-58
2019/08/10 15:21:07;;;;;;;3.21;1.58;;;;;;;23.72;58.46;100490.64;;;;-57
2019/08/10 15:24:07;;;;;;;4.93;1.70;;;;;;;23.73;58.28;100492.77;;;;-58
2019/08/10 15:27:07;;;;;;;3.48;1.70;;;;;;;23.72;58.39;100490.14;;;;-58
2019/08/10 15:30:07;;;;;;;3.55;1.60;;;;;;;23.72;58.42;100485.15;;;;-57
2019/08/10 15:33:07;;;;;;;2.97;1.70;;;;;;;23.71;58.34;100494.09;;;;-58
2019/08/10 15:36:07;;;;;;;8.68;2.13;;;;;;;23.70;58.52;100492.95;;;;-57
2019/08/10 15:39:07;;;;;;;4.95;1.55;;;;;;;23.71;58.46;100492.81;;;;-58
2019/08/10 15:42:07;;;;;;;5.81;1.60;;;;;;;23.73;58.46;100489.33;;;;-57
2019/08/10 15:45:07;;;;;;;4.04;1.57;;;;;;;23.74;58.45;100492.28;;;;-57
2019/08/10 15:48:07;;;;;;;5.03;1.81;;;;;;;23.76;58.50;100488.97;;;;-58
2019/08/10 15:51:07;;;;;;;3.56;1.53;;;;;;;23.77;58.51;100495.07;;;;-57
2019/08/10 15:54:07;;;;;;;5.08;1.71;;;;;;;23.77;58.50;100491.80;;;;-57
2019/08/10 15:57:07;;;;;;;3.65;1.66;;;;;;;23.77;58.47;100487.48;;;;-56
2019/08/10 16:00:07;;;;;;;4.42;1.70;;;;;;;23.78;58.48;100491.42;;;;-57
2019/08/10 16:03:07;;;;;;;2.71;1.65;;;;;;;23.78;58.45;100488.89;;;;-56
2019/08/10 16:06:07;;;;;;;6.63;1.73;;;;;;;23.79;58.51;100479.30;;;;-59
2019/08/10 16:09:07;;;;;;;4.51;1.79;;;;;;;23.80;58.56;100480.17;;;;-56
2019/08/10 16:12:07;;;;;;;4.83;1.70;;;;;;;23.80;58.51;100486.24;;;;-59
2019/08/10 16:15:07;;;;;;;2.46;1.65;;;;;;;23.80;58.49;100481.11;;;;-56
2019/08/10 16:18:07;;;;;;;4.63;1.60;;;;;;;23.81;58.54;100479.19;;;;-54
2019/08/10 16:21:07;;;;;;;4.53;1.71;;;;;;;23.81;58.51;100478.78;;;;-52
2019/08/10 16:24:07;;;;;;;1.69;1.49;;;;;;;23.82;58.49;100473.31;;;;-57
2019/08/10 16:27:07;;;;;;;4.03;1.50;;;;;;;23.82;58.52;100481.48;;;;-57
2019/08/10 16:30:07;;;;;;;3.46;1.69;;;;;;;23.83;58.52;100481.94;;;;-57
2019/08/10 16:33:07;;;;;;;2.20;1.53;;;;;;;23.83;58.51;100482.11;;;;-59
2019/08/10 16:36:07;;;;;;;3.31;1.59;;;;;;;23.83;58.58;100477.39;;;;-56
2019/08/10 16:39:07;;;;;;;2.83;1.53;;;;;;;23.84;58.58;100481.47;;;;-56
2019/08/10 16:42:07;;;;;;;3.01;1.51;;;;;;;23.85;58.55;100481.49;;;;-56